F/V Atalante — FVRQ — position and weather

sailwx.info

Track history (hours):
 
Tides and Currents Weather Stations Pressure Air Temp Water Temp Dewpoint Dewpoint Depression Visibility Wind Speed Wind Dir Waves Ship Positions

F/V Atalante

Last reported at 2017-Nov-20 00:30 UTC. Time now 2017-Nov-22 20:34 UTC.
Position N 44°53' W 001°19'.

Length 21 m; draft 3.9 m.

Type: Fishing. MMSI: 228854000.

Date/timePositionNaut miles runAvg speedWind from/ knotsBaromVisibWave heightAir tempDewpointWater temp
2017-Nov-20 00:30N 44°53' W 001°19'4 8.9
2017-Nov-20 00:00N 44°57' W 001°18'35 9.1
2017-Nov-19 20:10N 45°32' W 001°11'211.0
2017-Nov-19 20:01N 45°32' W 001°09'510.2
2017-Nov-19 19:31N 45°36' W 001°03'2 3.3
2017-Nov-19 19:00N 45°37' W 001°02'0 0.0
2017-Nov-19 18:31N 45°37' W 001°02'0 0.0
2017-Nov-19 18:00N 45°37' W 001°02'0 0.1
2017-Nov-19 17:30N 45°37' W 001°02'0 0.0
2017-Nov-19 17:01N 45°37' W 001°02'0 0.0
2017-Nov-19 16:31N 45°37' W 001°02'0 0.4
2017-Nov-19 16:00N 45°37' W 001°02'510.2
2017-Nov-19 15:31N 45°34' W 001°07'510.6
2017-Nov-19 15:00N 45°30' W 001°12'510.1
2017-Nov-19 14:30N 45°25' W 001°14'29 4.1
2017-Nov-19 07:19N 44°56' W 001°23'1 3.1
2017-Nov-19 07:00N 44°55' W 001°23'4 3.1
2017-Nov-19 05:51N 44°51' W 001°23'1 3.1
2017-Nov-19 05:30N 44°50' W 001°23'2 3.2
2017-Nov-19 05:00N 44°49' W 001°22'2 3.0
2017-Nov-19 04:30N 44°47' W 001°22'2 3.1
2017-Nov-19 04:00N 44°46' W 001°22'2 3.4
2017-Nov-19 03:30N 44°44' W 001°23'1 2.3
2017-Nov-19 03:00N 44°45' W 001°23'2 3.3
2017-Nov-19 02:30N 44°47' W 001°23'2 3.2
2017-Nov-19 02:00N 44°49' W 001°23'2 3.3
2017-Nov-19 01:30N 44°50' W 001°22'2 2.9
2017-Nov-19 00:57N 44°52' W 001°22'2 3.3
2017-Nov-19 00:29N 44°50' W 001°22'2 3.3
2017-Nov-19 00:00N 44°49' W 001°22'2 3.3
2017-Nov-18 23:30N 44°47' W 001°22'2 3.3
2017-Nov-18 23:00N 44°45' W 001°22'2 3.3
2017-Nov-18 22:30N 44°44' W 001°22'2 3.6
2017-Nov-18 22:01N 44°42' W 001°23'2 3.2
2017-Nov-18 21:30N 44°40' W 001°23'1 2.0
2017-Nov-18 21:00N 44°39' W 001°23'1 2.3
2017-Nov-18 20:30N 44°38' W 001°23'2 3.0
2017-Nov-18 20:00N 44°37' W 001°23'1 2.9
2017-Nov-18 19:30N 44°35' W 001°23'1 3.0
2017-Nov-18 19:00N 44°34' W 001°23'1 3.0
2017-Nov-18 18:30N 44°32' W 001°23'2 3.1
2017-Nov-18 18:00N 44°31' W 001°24'1 2.9
2017-Nov-18 17:30N 44°29' W 001°24'1 2.1
2017-Nov-18 17:00N 44°30' W 001°23'2 3.5
2017-Nov-18 16:30N 44°32' W 001°23'2 3.4
2017-Nov-18 16:01N 44°34' W 001°23'1 2.5
2017-Nov-18 15:31N 44°35' W 001°23'2 3.1
2017-Nov-18 15:00N 44°37' W 001°23'2 3.3
2017-Nov-18 14:30N 44°38' W 001°23'2 3.4
2017-Nov-18 14:00N 44°40' W 001°23'2 3.4
2017-Nov-18 13:30N 44°42' W 001°23'2 3.2
2017-Nov-18 13:00N 44°43' W 001°23'2 3.2
2017-Nov-18 12:30N 44°45' W 001°23'2 3.2
2017-Nov-18 12:01N 44°46' W 001°24'2 3.1
2017-Nov-18 11:30N 44°48' W 001°24'2 3.1
2017-Nov-18 11:00N 44°49' W 001°24'2 3.1
2017-Nov-18 10:30N 44°51' W 001°23'1 2.8
2017-Nov-18 10:01N 44°52' W 001°24'2 2.1
2017-Nov-18 09:17N 44°51' W 001°25'1 3.2
2017-Nov-18 08:59N 44°50' W 001°25'2 3.2
2017-Nov-18 08:30N 44°48' W 001°25'2 3.3
2017-Nov-18 08:00N 44°46' W 001°25'2 3.1
2017-Nov-18 07:30N 44°45' W 001°25'1 3.0
2017-Nov-18 07:00N 44°43' W 001°25'1 2.4
2017-Nov-18 06:30N 44°44' W 001°24'2 3.3
2017-Nov-18 06:00N 44°46' W 001°24'2 3.3
2017-Nov-18 05:30N 44°48' W 001°24'2 3.5
2017-Nov-18 05:00N 44°49' W 001°24'2 3.4
2017-Nov-18 04:30N 44°51' W 001°24'1 2.7
2017-Nov-18 03:59N 44°53' W 001°23'1 3.1
2017-Nov-18 03:30N 44°54' W 001°23'4 1.5
2017-Nov-18 01:06N 44°52' W 001°19'0 2.8
2017-Nov-18 01:00N 44°51' W 001°19'1 2.9
2017-Nov-18 00:30N 44°51' W 001°21'2 3.1
2017-Nov-18 00:00N 44°49' W 001°23'2 3.0
2017-Nov-17 23:30N 44°48' W 001°24'2 3.2
2017-Nov-17 23:00N 44°47' W 001°24'1 1.2
2017-Nov-17 22:30N 44°46' W 001°24'1 2.9
2017-Nov-17 22:00N 44°48' W 001°24'1 2.9
2017-Nov-17 21:30N 44°49' W 001°25'2 3.0
2017-Nov-17 21:00N 44°51' W 001°25'2 3.1
2017-Nov-17 20:30N 44°52' W 001°25'1 2.4
2017-Nov-17 19:57N 44°51' W 001°23'1 3.1
2017-Nov-17 19:30N 44°50' W 001°24'2 3.1
2017-Nov-17 19:00N 44°48' W 001°24'1 2.9
2017-Nov-17 18:30N 44°47' W 001°24'2 3.0
2017-Nov-17 18:00N 44°45' W 001°24'2 3.4
2017-Nov-17 17:30N 44°44' W 001°24'1 2.4
2017-Nov-17 17:01N 44°45' W 001°24'2 3.3
2017-Nov-17 16:30N 44°47' W 001°24'2 3.3
2017-Nov-17 16:00N 44°48' W 001°24'2 3.4
2017-Nov-17 15:30N 44°50' W 001°24'2 3.4
2017-Nov-17 15:00N 44°52' W 001°23'1 1.5
2017-Nov-17 14:04N 44°51' W 001°25'0 3.1
2017-Nov-17 13:58N 44°50' W 001°25'1 3.0
2017-Nov-17 13:30N 44°49' W 001°25'2 3.1
2017-Nov-17 13:00N 44°47' W 001°24'2 3.1
2017-Nov-17 12:30N 44°46' W 001°24'2 3.2
2017-Nov-17 12:00N 44°44' W 001°23'1 2.3
2017-Nov-17 11:30N 44°43' W 001°23'2 3.3
2017-Nov-17 11:00N 44°42' W 001°23'1 2.2
2017-Nov-17 10:30N 44°41' W 001°24'2 3.1
2017-Nov-17 10:00N 44°42' W 001°25'2 3.1
2017-Nov-17 09:31N 44°44' W 001°25'2 3.0
2017-Nov-17 09:01N 44°45' W 001°25'1 3.0
2017-Nov-17 08:31N 44°47' W 001°25'2 3.1
2017-Nov-17 08:01N 44°48' W 001°25'2 3.1
2017-Nov-17 07:30N 44°50' W 001°25'2 3.2
2017-Nov-17 07:01N 44°52' W 001°25'0 0.4
2017-Nov-17 06:11N 44°52' W 001°25'1 3.0
2017-Nov-17 06:00N 44°51' W 001°25'2 3.0
2017-Nov-17 05:30N 44°50' W 001°25'1 2.9
2017-Nov-17 05:00N 44°48' W 001°25'2 3.0
2017-Nov-17 04:30N 44°47' W 001°25'1 3.0
2017-Nov-17 04:00N 44°45' W 001°24'2 3.0
2017-Nov-17 03:30N 44°44' W 001°24'2 3.0
2017-Nov-17 03:00N 44°42' W 001°24'2 3.1
2017-Nov-17 02:30N 44°41' W 001°24'1 2.2
2017-Nov-17 02:00N 44°42' W 001°23'2 3.2
2017-Nov-17 01:30N 44°43' W 001°22'2 3.1
2017-Nov-17 01:00N 44°45' W 001°23'2 3.4
2017-Nov-17 00:30N 44°46' W 001°23'1 1.8
2017-Nov-17 00:00N 44°47' W 001°24'2 3.2
2017-Nov-16 23:30N 44°49' W 001°24'2 3.3
2017-Nov-16 23:00N 44°50' W 001°23'2 3.2
2017-Nov-16 22:27N 44°52' W 001°23'1 3.0
2017-Nov-16 22:00N 44°53' W 001°24'2 3.1
2017-Nov-16 21:29N 44°55' W 001°24'2 1.2
2017-Nov-16 19:53N 44°54' W 001°26'1 3.2
2017-Nov-16 19:29N 44°53' W 001°26'1 2.7
2017-Nov-16 19:00N 44°51' W 001°27'1 2.1
2017-Nov-16 18:26N 44°50' W 001°26'1 1.8
2017-Nov-16 18:00N 44°49' W 001°26'2 3.3
2017-Nov-16 17:30N 44°48' W 001°25'2 3.3
2017-Nov-16 17:00N 44°46' W 001°25'2 3.3
2017-Nov-16 16:30N 44°45' W 001°25'2 3.2
2017-Nov-16 16:00N 44°43' W 001°25'2 3.3
2017-Nov-16 15:30N 44°41' W 001°25'2 3.3
2017-Nov-16 15:00N 44°40' W 001°25'2 3.4
2017-Nov-16 14:30N 44°38' W 001°25'2 3.3
2017-Nov-16 14:00N 44°37' W 001°24'2 3.3
2017-Nov-16 13:30N 44°35' W 001°24'4 7.0
2017-Nov-16 13:00N 44°31' W 001°23'510.0
2017-Nov-16 12:30N 44°26' W 001°23'0 0.6
2017-Nov-16 12:01N 44°26' W 001°23'1 1.7
2017-Nov-16 11:30N 44°26' W 001°22'2 3.1
2017-Nov-16 11:00N 44°24' W 001°23'2 3.1
2017-Nov-16 10:30N 44°23' W 001°24'2 3.1
2017-Nov-16 10:00N 44°21' W 001°24'2 3.1
2017-Nov-16 09:30N 44°20' W 001°24'2 3.1
2017-Nov-16 09:00N 44°18' W 001°24'2 3.0
2017-Nov-16 08:30N 44°17' W 001°24'55 7.0
2017-Nov-16 00:42N 43°23' W 001°40'0 0.0
2017-Nov-16 00:30N 43°23' W 001°40'0 0.0
2017-Nov-16 00:00N 43°23' W 001°40'0 0.2
2017-Nov-15 23:30N 43°23' W 001°40'0 0.0
2017-Nov-15 23:00N 43°23' W 001°40'0 0.7
2017-Nov-15 22:30N 43°23' W 001°40'4 7.3
2017-Nov-15 22:00N 43°27' W 001°39'5 9.4
2017-Nov-15 21:30N 43°31' W 001°38'5 9.2
2017-Nov-15 21:00N 43°36' W 001°36'5 9.2
2017-Nov-15 20:31N 43°40' W 001°34'5 9.2
2017-Nov-15 20:00N 43°45' W 001°33'5 9.3
2017-Nov-15 19:31N 43°49' W 001°31'5 9.6
2017-Nov-15 19:01N 43°54' W 001°30'5 9.8
2017-Nov-15 18:27N 43°59' W 001°28'3 6.5
2017-Nov-15 18:01N 44°02' W 001°28'2 3.1
2017-Nov-15 17:30N 44°04' W 001°27'2 3.4
2017-Nov-15 17:00N 44°05' W 001°27'2 3.6
2017-Nov-15 16:29N 44°07' W 001°27'2 3.7
2017-Nov-15 16:00N 44°09' W 001°26'2 3.5
2017-Nov-15 15:30N 44°11' W 001°26'2 3.5
2017-Nov-15 15:00N 44°12' W 001°25'2 3.4
2017-Nov-15 14:30N 44°14' W 001°25'2 3.3
2017-Nov-15 14:00N 44°16' W 001°24'2 3.2
2017-Nov-15 13:30N 44°17' W 001°23'2 3.8
2017-Nov-15 13:00N 44°19' W 001°22'1 2.3
2017-Nov-15 12:30N 44°20' W 001°22'2 3.2
2017-Nov-15 12:00N 44°22' W 001°22'3 2.0
2017-Nov-15 10:38N 44°19' W 001°25'0 3.1
2017-Nov-15 10:30N 44°19' W 001°25'1 2.8
2017-Nov-15 10:00N 44°18' W 001°23'1 2.8
2017-Nov-15 09:28N 44°19' W 001°22'1 3.2
2017-Nov-15 09:00N 44°21' W 001°22'2 3.2
2017-Nov-15 08:23N 44°23' W 001°23'1 1.4
2017-Nov-15 08:00N 44°22' W 001°24'7 0.5
2017-Nov-14 19:47N 44°28' W 001°20'1 3.1
2017-Nov-14 19:30N 44°28' W 001°21'1 2.3
2017-Nov-14 19:00N 44°28' W 001°22'2 3.1
2017-Nov-14 18:30N 44°26' W 001°22'2 3.1
2017-Nov-14 18:00N 44°25' W 001°23'2 3.0
2017-Nov-14 17:30N 44°23' W 001°23'4 0.7
2017-Nov-14 12:34N 44°27' W 001°22'0 3.1
2017-Nov-14 12:30N 44°27' W 001°22'2 3.1
2017-Nov-14 12:00N 44°28' W 001°21'2 2.9
2017-Nov-14 11:23N 44°26' W 001°20'4 2.9
2017-Nov-14 10:03N 44°22' W 001°20'0 3.3
2017-Nov-14 10:00N 44°22' W 001°20'2 3.4
2017-Nov-14 09:28N 44°20' W 001°21'5 1.0
2017-Nov-14 04:30N 44°25' W 001°21'2 3.2
2017-Nov-14 03:58N 44°27' W 001°21'1 1.3
2017-Nov-14 03:30N 44°27' W 001°22'2 3.1
2017-Nov-14 03:00N 44°26' W 001°22'2 3.0
2017-Nov-14 02:30N 44°24' W 001°22'62 2.5
2017-Nov-13 02:00N 43°23' W 001°40'0 0.0
2017-Nov-13 01:30N 43°23' W 001°40'0 0.2
2017-Nov-13 01:00N 43°23' W 001°40'0 0.0
2017-Nov-13 00:30N 43°23' W 001°40'0 0.0
2017-Nov-13 00:00N 43°23' W 001°40'0 0.0
2017-Nov-12 23:30N 43°23' W 001°40'3 5.3
2017-Nov-12 23:01N 43°26' W 001°41'5 9.5
2017-Nov-12 22:31N 43°30' W 001°42'5 9.5
2017-Nov-12 22:00N 43°35' W 001°43'5 9.3
2017-Nov-12 21:30N 43°40' W 001°43'2 4.0
2017-Nov-12 21:01N 43°42' W 001°44'1 1.9
2017-Nov-12 20:30N 43°42' W 001°43'1 2.9
2017-Nov-12 20:00N 43°43' W 001°42'1 2.8
2017-Nov-12 19:30N 43°44' W 001°40'1 2.7
2017-Nov-12 19:00N 43°45' W 001°38'1 3.0
2017-Nov-12 18:30N 43°46' W 001°37'1 3.0
2017-Nov-12 18:00N 43°47' W 001°36'2 3.0
2017-Nov-12 17:30N 43°48' W 001°36'2 3.0
2017-Nov-12 17:00N 43°49' W 001°34'1 1.2
2017-Nov-12 16:30N 43°50' W 001°34'1 3.0
2017-Nov-12 16:01N 43°51' W 001°33'1 3.0
2017-Nov-12 15:30N 43°53' W 001°32'2 3.0
2017-Nov-12 15:01N 43°54' W 001°31'1 2.9
2017-Nov-12 14:30N 43°55' W 001°30'1 2.7
2017-Nov-12 14:00N 43°57' W 001°30'1 2.7
2017-Nov-12 13:30N 43°58' W 001°29'1 2.6
2017-Nov-12 13:00N 43°59' W 001°29'3 2.7
2017-Nov-12 11:50N 44°01' W 001°26'1 1.4
2017-Nov-12 11:27N 44°02' W 001°26'2 2.7
2017-Nov-12 10:48N 44°04' W 001°25'1 2.7
2017-Nov-12 10:17N 44°05' W 001°25'1 3.0
2017-Nov-12 10:00N 44°06' W 001°25'2 3.0
2017-Nov-12 09:30N 44°07' W 001°26'2 3.1
2017-Nov-12 08:56N 44°09' W 001°26'1 3.2
2017-Nov-12 08:29N 44°11' W 001°27'1 3.1
2017-Nov-12 08:00N 44°12' W 001°27'2 3.2
2017-Nov-12 07:31N 44°14' W 001°26'2 3.2
2017-Nov-12 06:57N 44°15' W 001°25'1 1.5
2017-Nov-12 06:30N 44°16' W 001°25'1 2.3
2017-Nov-12 05:59N 44°15' W 001°25'1 2.7
2017-Nov-12 05:30N 44°13' W 001°25'1 2.8
2017-Nov-12 04:59N 44°12' W 001°25'1 3.0
2017-Nov-12 04:30N 44°11' W 001°25'1 2.9
2017-Nov-12 04:00N 44°09' W 001°25'2 2.9
2017-Nov-12 03:28N 44°08' W 001°25'1 2.8
2017-Nov-12 02:57N 44°06' W 001°25'1 3.0
2017-Nov-12 02:30N 44°05' W 001°25'2 2.9
2017-Nov-12 01:56N 44°03' W 001°26'1 3.1
2017-Nov-12 01:30N 44°02' W 001°27'1 1.3
2017-Nov-12 01:00N 44°02' W 001°28'1 2.9
2017-Nov-12 00:30N 44°04' W 001°28'1 2.7
2017-Nov-11 23:59N 44°05' W 001°27'1 2.8
2017-Nov-11 23:30N 44°06' W 001°27'2 3.0
2017-Nov-11 22:52N 44°08' W 001°26'3 3.0
2017-Nov-11 21:52N 44°11' W 001°26'2 3.0
2017-Nov-11 21:18N 44°13' W 001°25'1 2.8
2017-Nov-11 20:57N 44°14' W 001°25'2 2.9
2017-Nov-11 20:26N 44°15' W 001°25'1 2.9
2017-Nov-11 20:00N 44°16' W 001°26'1 2.0
2017-Nov-11 19:29N 44°17' W 001°27'1 2.9
2017-Nov-11 19:00N 44°19' W 001°27'1 2.9
2017-Nov-11 18:30N 44°20' W 001°27'2 3.0
2017-Nov-11 17:58N 44°22' W 001°26'3 2.8
2017-Nov-11 16:58N 44°25' W 001°26'1 3.0
2017-Nov-11 16:30N 44°26' W 001°26'1 3.0
2017-Nov-11 16:00N 44°27' W 001°25'1 2.9
2017-Nov-11 15:30N 44°29' W 001°25'2 3.2
2017-Nov-11 14:53N 44°31' W 001°25'0 1.0
2017-Nov-11 14:30N 44°31' W 001°25'2 3.1
2017-Nov-11 14:00N 44°29' W 001°25'2 3.1
2017-Nov-11 13:30N 44°27' W 001°25'2 3.1
2017-Nov-11 13:00N 44°26' W 001°24'2 3.0
2017-Nov-11 12:28N 44°24' W 001°24'1 3.1
2017-Nov-11 12:00N 44°23' W 001°24'2 3.1
2017-Nov-11 11:20N 44°21' W 001°24'1 3.0
2017-Nov-11 11:00N 44°20' W 001°25'2 2.4
2017-Nov-11 10:20N 44°21' W 001°26'1 3.2
2017-Nov-11 09:58N 44°22' W 001°26'1 2.0
2017-Nov-11 09:20N 44°23' W 001°26'3 3.0
2017-Nov-11 08:23N 44°26' W 001°25'1 3.1
2017-Nov-11 07:59N 44°28' W 001°25'1 3.0
2017-Nov-11 07:29N 44°29' W 001°25'2 3.0
2017-Nov-11 06:58N 44°31' W 001°25'1 3.1
2017-Nov-11 06:30N 44°32' W 001°26'1 2.9
2017-Nov-11 06:00N 44°33' W 001°26'1 2.9
2017-Nov-11 05:30N 44°35' W 001°25'1 3.0
2017-Nov-11 05:00N 44°36' W 001°24'2 3.1
2017-Nov-11 04:30N 44°37' W 001°22'0 0.7
2017-Nov-11 04:01N 44°37' W 001°22'1 2.0
2017-Nov-11 03:30N 44°36' W 001°22'1 2.9
2017-Nov-11 03:00N 44°34' W 001°22'1 3.0
2017-Nov-11 02:30N 44°33' W 001°23'1 2.9
2017-Nov-11 02:00N 44°32' W 001°23'1 2.8
2017-Nov-11 01:30N 44°30' W 001°22'1 2.8
2017-Nov-11 01:00N 44°29' W 001°22'1 2.7
2017-Nov-11 00:30N 44°27' W 001°22'1 2.6
2017-Nov-11 00:00N 44°26' W 001°22'1 2.9
2017-Nov-10 23:30N 44°25' W 001°22'1 2.9
2017-Nov-10 23:00N 44°23' W 001°22'3 0.9
2017-Nov-10 19:42N 44°22' W 001°26'6 3.0
2017-Nov-10 17:34N 44°28' W 001°25'0 3.0
2017-Nov-10 17:30N 44°28' W 001°25'2 3.1
2017-Nov-10 17:00N 44°30' W 001°25'2 3.2
2017-Nov-10 16:30N 44°31' W 001°25'2 3.2
2017-Nov-10 16:00N 44°33' W 001°25'1 2.9
2017-Nov-10 15:30N 44°34' W 001°25'1 1.7
2017-Nov-10 15:00N 44°35' W 001°25'1 2.6
2017-Nov-10 14:30N 44°34' W 001°26'1 2.7
2017-Nov-10 14:00N 44°33' W 001°26'1 2.9
2017-Nov-10 13:30N 44°31' W 001°25'2 3.0
2017-Nov-10 13:00N 44°30' W 001°25'1 3.0
2017-Nov-10 12:30N 44°28' W 001°25'2 3.2
2017-Nov-10 11:59N 44°27' W 001°26'2 3.2
2017-Nov-10 11:30N 44°25' W 001°26'2 3.1
2017-Nov-10 10:59N 44°23' W 001°26'6 1.2
2017-Nov-10 06:09N 44°29' W 001°24'1 2.8
2017-Nov-10 05:50N 44°29' W 001°23'1 2.6
2017-Nov-10 05:30N 44°29' W 001°22'2 3.2
2017-Nov-10 05:00N 44°27' W 001°22'1 2.7
2017-Nov-10 04:30N 44°26' W 001°22'1 2.7
2017-Nov-10 04:00N 44°25' W 001°22'1 0.4
2017-Nov-10 01:23N 44°26' W 001°23'1 2.9
2017-Nov-10 00:59N 44°27' W 001°23'  
Track history (hours):
 
Tides and Currents Weather Stations Pressure Air Temp Water Temp Dewpoint Dewpoint Depression Visibility Wind Speed Wind Dir Waves Ship Positions

F/V Atalante

Last reported at 2017-Nov-20 00:30 UTC. Time now 2017-Nov-22 20:34 UTC.
Position N 44°53' W 001°19'.

Length 21 m; draft 3.9 m.

Type: Fishing. MMSI: 228854000.

Date/timePositionNaut miles runAvg speedWind from/ knotsBaromVisibWave heightAir tempDewpointWater temp
2017-Nov-20 00:30N 44°53' W 001°19'4 8.9
2017-Nov-20 00:00N 44°57' W 001°18'35 9.1
2017-Nov-19 20:10N 45°32' W 001°11'211.0
2017-Nov-19 20:01N 45°32' W 001°09'510.2
2017-Nov-19 19:31N 45°36' W 001°03'2 3.3
2017-Nov-19 19:00N 45°37' W 001°02'0 0.0
2017-Nov-19 18:31N 45°37' W 001°02'0 0.0
2017-Nov-19 18:00N 45°37' W 001°02'0 0.1
2017-Nov-19 17:30N 45°37' W 001°02'0 0.0
2017-Nov-19 17:01N 45°37' W 001°02'0 0.0
2017-Nov-19 16:31N 45°37' W 001°02'0 0.4
2017-Nov-19 16:00N 45°37' W 001°02'510.2
2017-Nov-19 15:31N 45°34' W 001°07'510.6
2017-Nov-19 15:00N 45°30' W 001°12'510.1
2017-Nov-19 14:30N 45°25' W 001°14'29 4.1
2017-Nov-19 07:19N 44°56' W 001°23'1 3.1
2017-Nov-19 07:00N 44°55' W 001°23'4 3.1
2017-Nov-19 05:51N 44°51' W 001°23'1 3.1
2017-Nov-19 05:30N 44°50' W 001°23'2 3.2
2017-Nov-19 05:00N 44°49' W 001°22'2 3.0
2017-Nov-19 04:30N 44°47' W 001°22'2 3.1
2017-Nov-19 04:00N 44°46' W 001°22'2 3.4
2017-Nov-19 03:30N 44°44' W 001°23'1 2.3
2017-Nov-19 03:00N 44°45' W 001°23'2 3.3
2017-Nov-19 02:30N 44°47' W 001°23'2 3.2
2017-Nov-19 02:00N 44°49' W 001°23'2 3.3
2017-Nov-19 01:30N 44°50' W 001°22'2 2.9
2017-Nov-19 00:57N 44°52' W 001°22'2 3.3
2017-Nov-19 00:29N 44°50' W 001°22'2 3.3
2017-Nov-19 00:00N 44°49' W 001°22'2 3.3
2017-Nov-18 23:30N 44°47' W 001°22'2 3.3
2017-Nov-18 23:00N 44°45' W 001°22'2 3.3
2017-Nov-18 22:30N 44°44' W 001°22'2 3.6
2017-Nov-18 22:01N 44°42' W 001°23'2 3.2
2017-Nov-18 21:30N 44°40' W 001°23'1 2.0
2017-Nov-18 21:00N 44°39' W 001°23'1 2.3
2017-Nov-18 20:30N 44°38' W 001°23'2 3.0
2017-Nov-18 20:00N 44°37' W 001°23'1 2.9
2017-Nov-18 19:30N 44°35' W 001°23'1 3.0
2017-Nov-18 19:00N 44°34' W 001°23'1 3.0
2017-Nov-18 18:30N 44°32' W 001°23'2 3.1
2017-Nov-18 18:00N 44°31' W 001°24'1 2.9
2017-Nov-18 17:30N 44°29' W 001°24'1 2.1
2017-Nov-18 17:00N 44°30' W 001°23'2 3.5
2017-Nov-18 16:30N 44°32' W 001°23'2 3.4
2017-Nov-18 16:01N 44°34' W 001°23'1 2.5
2017-Nov-18 15:31N 44°35' W 001°23'2 3.1
2017-Nov-18 15:00N 44°37' W 001°23'2 3.3
2017-Nov-18 14:30N 44°38' W 001°23'2 3.4
2017-Nov-18 14:00N 44°40' W 001°23'2 3.4
2017-Nov-18 13:30N 44°42' W 001°23'2 3.2
2017-Nov-18 13:00N 44°43' W 001°23'2 3.2
2017-Nov-18 12:30N 44°45' W 001°23'2 3.2
2017-Nov-18 12:01N 44°46' W 001°24'2 3.1
2017-Nov-18 11:30N 44°48' W 001°24'2 3.1
2017-Nov-18 11:00N 44°49' W 001°24'2 3.1
2017-Nov-18 10:30N 44°51' W 001°23'1 2.8
2017-Nov-18 10:01N 44°52' W 001°24'2 2.1
2017-Nov-18 09:17N 44°51' W 001°25'1 3.2
2017-Nov-18 08:59N 44°50' W 001°25'2 3.2
2017-Nov-18 08:30N 44°48' W 001°25'2 3.3
2017-Nov-18 08:00N 44°46' W 001°25'2 3.1
2017-Nov-18 07:30N 44°45' W 001°25'1 3.0
2017-Nov-18 07:00N 44°43' W 001°25'1 2.4
2017-Nov-18 06:30N 44°44' W 001°24'2 3.3
2017-Nov-18 06:00N 44°46' W 001°24'2 3.3
2017-Nov-18 05:30N 44°48' W 001°24'2 3.5
2017-Nov-18 05:00N 44°49' W 001°24'2 3.4
2017-Nov-18 04:30N 44°51' W 001°24'1 2.7
2017-Nov-18 03:59N 44°53' W 001°23'1 3.1
2017-Nov-18 03:30N 44°54' W 001°23'4 1.5
2017-Nov-18 01:06N 44°52' W 001°19'0 2.8
2017-Nov-18 01:00N 44°51' W 001°19'1 2.9
2017-Nov-18 00:30N 44°51' W 001°21'2 3.1
2017-Nov-18 00:00N 44°49' W 001°23'2 3.0
2017-Nov-17 23:30N 44°48' W 001°24'2 3.2
2017-Nov-17 23:00N 44°47' W 001°24'1 1.2
2017-Nov-17 22:30N 44°46' W 001°24'1 2.9
2017-Nov-17 22:00N 44°48' W 001°24'1 2.9
2017-Nov-17 21:30N 44°49' W 001°25'2 3.0
2017-Nov-17 21:00N 44°51' W 001°25'2 3.1
2017-Nov-17 20:30N 44°52' W 001°25'1 2.4
2017-Nov-17 19:57N 44°51' W 001°23'1 3.1
2017-Nov-17 19:30N 44°50' W 001°24'2 3.1
2017-Nov-17 19:00N 44°48' W 001°24'1 2.9
2017-Nov-17 18:30N 44°47' W 001°24'2 3.0
2017-Nov-17 18:00N 44°45' W 001°24'2 3.4
2017-Nov-17 17:30N 44°44' W 001°24'1 2.4
2017-Nov-17 17:01N 44°45' W 001°24'2 3.3
2017-Nov-17 16:30N 44°47' W 001°24'2 3.3
2017-Nov-17 16:00N 44°48' W 001°24'2 3.4
2017-Nov-17 15:30N 44°50' W 001°24'2 3.4
2017-Nov-17 15:00N 44°52' W 001°23'1 1.5
2017-Nov-17 14:04N 44°51' W 001°25'0 3.1
2017-Nov-17 13:58N 44°50' W 001°25'1 3.0
2017-Nov-17 13:30N 44°49' W 001°25'2 3.1
2017-Nov-17 13:00N 44°47' W 001°24'2 3.1
2017-Nov-17 12:30N 44°46' W 001°24'2 3.2
2017-Nov-17 12:00N 44°44' W 001°23'1 2.3
2017-Nov-17 11:30N 44°43' W 001°23'2 3.3
2017-Nov-17 11:00N 44°42' W 001°23'1 2.2
2017-Nov-17 10:30N 44°41' W 001°24'2 3.1
2017-Nov-17 10:00N 44°42' W 001°25'2 3.1
2017-Nov-17 09:31N 44°44' W 001°25'2 3.0
2017-Nov-17 09:01N 44°45' W 001°25'1 3.0
2017-Nov-17 08:31N 44°47' W 001°25'2 3.1
2017-Nov-17 08:01N 44°48' W 001°25'2 3.1
2017-Nov-17 07:30N 44°50' W 001°25'2 3.2
2017-Nov-17 07:01N 44°52' W 001°25'0 0.4
2017-Nov-17 06:11N 44°52' W 001°25'1 3.0
2017-Nov-17 06:00N 44°51' W 001°25'2 3.0
2017-Nov-17 05:30N 44°50' W 001°25'1 2.9
2017-Nov-17 05:00N 44°48' W 001°25'2 3.0
2017-Nov-17 04:30N 44°47' W 001°25'1 3.0
2017-Nov-17 04:00N 44°45' W 001°24'2 3.0
2017-Nov-17 03:30N 44°44' W 001°24'2 3.0
2017-Nov-17 03:00N 44°42' W 001°24'2 3.1
2017-Nov-17 02:30N 44°41' W 001°24'1 2.2
2017-Nov-17 02:00N 44°42' W 001°23'2 3.2
2017-Nov-17 01:30N 44°43' W 001°22'2 3.1
2017-Nov-17 01:00N 44°45' W 001°23'2 3.4
2017-Nov-17 00:30N 44°46' W 001°23'1 1.8
2017-Nov-17 00:00N 44°47' W 001°24'2 3.2
2017-Nov-16 23:30N 44°49' W 001°24'2 3.3
2017-Nov-16 23:00N 44°50' W 001°23'2 3.2
2017-Nov-16 22:27N 44°52' W 001°23'1 3.0
2017-Nov-16 22:00N 44°53' W 001°24'2 3.1
2017-Nov-16 21:29N 44°55' W 001°24'2 1.2
2017-Nov-16 19:53N 44°54' W 001°26'1 3.2
2017-Nov-16 19:29N 44°53' W 001°26'1 2.7
2017-Nov-16 19:00N 44°51' W 001°27'1 2.1
2017-Nov-16 18:26N 44°50' W 001°26'1 1.8
2017-Nov-16 18:00N 44°49' W 001°26'2 3.3
2017-Nov-16 17:30N 44°48' W 001°25'2 3.3
2017-Nov-16 17:00N 44°46' W 001°25'2 3.3
2017-Nov-16 16:30N 44°45' W 001°25'2 3.2
2017-Nov-16 16:00N 44°43' W 001°25'2 3.3
2017-Nov-16 15:30N 44°41' W 001°25'2 3.3
2017-Nov-16 15:00N 44°40' W 001°25'2 3.4
2017-Nov-16 14:30N 44°38' W 001°25'2 3.3
2017-Nov-16 14:00N 44°37' W 001°24'2 3.3
2017-Nov-16 13:30N 44°35' W 001°24'4 7.0
2017-Nov-16 13:00N 44°31' W 001°23'510.0
2017-Nov-16 12:30N 44°26' W 001°23'0 0.6
2017-Nov-16 12:01N 44°26' W 001°23'1 1.7
2017-Nov-16 11:30N 44°26' W 001°22'2 3.1
2017-Nov-16 11:00N 44°24' W 001°23'2 3.1
2017-Nov-16 10:30N 44°23' W 001°24'2 3.1
2017-Nov-16 10:00N 44°21' W 001°24'2 3.1
2017-Nov-16 09:30N 44°20' W 001°24'2 3.1
2017-Nov-16 09:00N 44°18' W 001°24'2 3.0
2017-Nov-16 08:30N 44°17' W 001°24'55 7.0
2017-Nov-16 00:42N 43°23' W 001°40'0 0.0
2017-Nov-16 00:30N 43°23' W 001°40'0 0.0
2017-Nov-16 00:00N 43°23' W 001°40'0 0.2
2017-Nov-15 23:30N 43°23' W 001°40'0 0.0
2017-Nov-15 23:00N 43°23' W 001°40'0 0.7
2017-Nov-15 22:30N 43°23' W 001°40'4 7.3
2017-Nov-15 22:00N 43°27' W 001°39'5 9.4
2017-Nov-15 21:30N 43°31' W 001°38'5 9.2
2017-Nov-15 21:00N 43°36' W 001°36'5 9.2
2017-Nov-15 20:31N 43°40' W 001°34'5 9.2
2017-Nov-15 20:00N 43°45' W 001°33'5 9.3
2017-Nov-15 19:31N 43°49' W 001°31'5 9.6
2017-Nov-15 19:01N 43°54' W 001°30'5 9.8
2017-Nov-15 18:27N 43°59' W 001°28'3 6.5
2017-Nov-15 18:01N 44°02' W 001°28'2 3.1
2017-Nov-15 17:30N 44°04' W 001°27'2 3.4
2017-Nov-15 17:00N 44°05' W 001°27'2 3.6
2017-Nov-15 16:29N 44°07' W 001°27'2 3.7
2017-Nov-15 16:00N 44°09' W 001°26'2 3.5
2017-Nov-15 15:30N 44°11' W 001°26'2 3.5
2017-Nov-15 15:00N 44°12' W 001°25'2 3.4
2017-Nov-15 14:30N 44°14' W 001°25'2 3.3
2017-Nov-15 14:00N 44°16' W 001°24'2 3.2
2017-Nov-15 13:30N 44°17' W 001°23'2 3.8
2017-Nov-15 13:00N 44°19' W 001°22'1 2.3
2017-Nov-15 12:30N 44°20' W 001°22'2 3.2
2017-Nov-15 12:00N 44°22' W 001°22'3 2.0
2017-Nov-15 10:38N 44°19' W 001°25'0 3.1
2017-Nov-15 10:30N 44°19' W 001°25'1 2.8
2017-Nov-15 10:00N 44°18' W 001°23'1 2.8
2017-Nov-15 09:28N 44°19' W 001°22'1 3.2
2017-Nov-15 09:00N 44°21' W 001°22'2 3.2
2017-Nov-15 08:23N 44°23' W 001°23'1 1.4
2017-Nov-15 08:00N 44°22' W 001°24'7 0.5
2017-Nov-14 19:47N 44°28' W 001°20'1 3.1
2017-Nov-14 19:30N 44°28' W 001°21'1 2.3
2017-Nov-14 19:00N 44°28' W 001°22'2 3.1
2017-Nov-14 18:30N 44°26' W 001°22'2 3.1
2017-Nov-14 18:00N 44°25' W 001°23'2 3.0
2017-Nov-14 17:30N 44°23' W 001°23'4 0.7
2017-Nov-14 12:34N 44°27' W 001°22'0 3.1
2017-Nov-14 12:30N 44°27' W 001°22'2 3.1
2017-Nov-14 12:00N 44°28' W 001°21'2 2.9
2017-Nov-14 11:23N 44°26' W 001°20'4 2.9
2017-Nov-14 10:03N 44°22' W 001°20'0 3.3
2017-Nov-14 10:00N 44°22' W 001°20'2 3.4
2017-Nov-14 09:28N 44°20' W 001°21'5 1.0
2017-Nov-14 04:30N 44°25' W 001°21'2 3.2
2017-Nov-14 03:58N 44°27' W 001°21'1 1.3
2017-Nov-14 03:30N 44°27' W 001°22'2 3.1
2017-Nov-14 03:00N 44°26' W 001°22'2 3.0
2017-Nov-14 02:30N 44°24' W 001°22'62 2.5
2017-Nov-13 02:00N 43°23' W 001°40'0 0.0
2017-Nov-13 01:30N 43°23' W 001°40'0 0.2
2017-Nov-13 01:00N 43°23' W 001°40'0 0.0
2017-Nov-13 00:30N 43°23' W 001°40'0 0.0
2017-Nov-13 00:00N 43°23' W 001°40'0 0.0
2017-Nov-12 23:30N 43°23' W 001°40'3 5.3
2017-Nov-12 23:01N 43°26' W 001°41'5 9.5
2017-Nov-12 22:31N 43°30' W 001°42'5 9.5
2017-Nov-12 22:00N 43°35' W 001°43'5 9.3
2017-Nov-12 21:30N 43°40' W 001°43'2 4.0
2017-Nov-12 21:01N 43°42' W 001°44'1 1.9
2017-Nov-12 20:30N 43°42' W 001°43'1 2.9
2017-Nov-12 20:00N 43°43' W 001°42'1 2.8
2017-Nov-12 19:30N 43°44' W 001°40'1 2.7
2017-Nov-12 19:00N 43°45' W 001°38'1 3.0
2017-Nov-12 18:30N 43°46' W 001°37'1 3.0
2017-Nov-12 18:00N 43°47' W 001°36'2 3.0
2017-Nov-12 17:30N 43°48' W 001°36'2 3.0
2017-Nov-12 17:00N 43°49' W 001°34'1 1.2
2017-Nov-12 16:30N 43°50' W 001°34'1 3.0
2017-Nov-12 16:01N 43°51' W 001°33'1 3.0
2017-Nov-12 15:30N 43°53' W 001°32'2 3.0
2017-Nov-12 15:01N 43°54' W 001°31'1 2.9
2017-Nov-12 14:30N 43°55' W 001°30'1 2.7
2017-Nov-12 14:00N 43°57' W 001°30'1 2.7
2017-Nov-12 13:30N 43°58' W 001°29'1 2.6
2017-Nov-12 13:00N 43°59' W 001°29'3 2.7
2017-Nov-12 11:50N 44°01' W 001°26'1 1.4
2017-Nov-12 11:27N 44°02' W 001°26'2 2.7
2017-Nov-12 10:48N 44°04' W 001°25'1 2.7
2017-Nov-12 10:17N 44°05' W 001°25'1 3.0
2017-Nov-12 10:00N 44°06' W 001°25'2 3.0
2017-Nov-12 09:30N 44°07' W 001°26'2 3.1
2017-Nov-12 08:56N 44°09' W 001°26'1 3.2
2017-Nov-12 08:29N 44°11' W 001°27'1 3.1
2017-Nov-12 08:00N 44°12' W 001°27'2 3.2
2017-Nov-12 07:31N 44°14' W 001°26'2 3.2
2017-Nov-12 06:57N 44°15' W 001°25'1 1.5
2017-Nov-12 06:30N 44°16' W 001°25'1 2.3
2017-Nov-12 05:59N 44°15' W 001°25'1 2.7
2017-Nov-12 05:30N 44°13' W 001°25'1 2.8
2017-Nov-12 04:59N 44°12' W 001°25'1 3.0
2017-Nov-12 04:30N 44°11' W 001°25'1 2.9
2017-Nov-12 04:00N 44°09' W 001°25'2 2.9
2017-Nov-12 03:28N 44°08' W 001°25'1 2.8
2017-Nov-12 02:57N 44°06' W 001°25'1 3.0
2017-Nov-12 02:30N 44°05' W 001°25'2 2.9
2017-Nov-12 01:56N 44°03' W 001°26'1 3.1
2017-Nov-12 01:30N 44°02' W 001°27'1 1.3
2017-Nov-12 01:00N 44°02' W 001°28'1 2.9
2017-Nov-12 00:30N 44°04' W 001°28'1 2.7
2017-Nov-11 23:59N 44°05' W 001°27'1 2.8
2017-Nov-11 23:30N 44°06' W 001°27'2 3.0
2017-Nov-11 22:52N 44°08' W 001°26'3 3.0
2017-Nov-11 21:52N 44°11' W 001°26'2 3.0
2017-Nov-11 21:18N 44°13' W 001°25'1 2.8
2017-Nov-11 20:57N 44°14' W 001°25'2 2.9
2017-Nov-11 20:26N 44°15' W 001°25'1 2.9
2017-Nov-11 20:00N 44°16' W 001°26'1 2.0
2017-Nov-11 19:29N 44°17' W 001°27'1 2.9
2017-Nov-11 19:00N 44°19' W 001°27'1 2.9
2017-Nov-11 18:30N 44°20' W 001°27'2 3.0
2017-Nov-11 17:58N 44°22' W 001°26'3 2.8
2017-Nov-11 16:58N 44°25' W 001°26'1 3.0
2017-Nov-11 16:30N 44°26' W 001°26'1 3.0
2017-Nov-11 16:00N 44°27' W 001°25'1 2.9
2017-Nov-11 15:30N 44°29' W 001°25'2 3.2
2017-Nov-11 14:53N 44°31' W 001°25'0 1.0
2017-Nov-11 14:30N 44°31' W 001°25'2 3.1
2017-Nov-11 14:00N 44°29' W 001°25'2 3.1
2017-Nov-11 13:30N 44°27' W 001°25'2 3.1
2017-Nov-11 13:00N 44°26' W 001°24'2 3.0
2017-Nov-11 12:28N 44°24' W 001°24'1 3.1
2017-Nov-11 12:00N 44°23' W 001°24'2 3.1
2017-Nov-11 11:20N 44°21' W 001°24'1 3.0
2017-Nov-11 11:00N 44°20' W 001°25'2 2.4
2017-Nov-11 10:20N 44°21' W 001°26'1 3.2
2017-Nov-11 09:58N 44°22' W 001°26'1 2.0
2017-Nov-11 09:20N 44°23' W 001°26'3 3.0
2017-Nov-11 08:23N 44°26' W 001°25'1 3.1
2017-Nov-11 07:59N 44°28' W 001°25'1 3.0
2017-Nov-11 07:29N 44°29' W 001°25'2 3.0
2017-Nov-11 06:58N 44°31' W 001°25'1 3.1
2017-Nov-11 06:30N 44°32' W 001°26'1 2.9
2017-Nov-11 06:00N 44°33' W 001°26'1 2.9
2017-Nov-11 05:30N 44°35' W 001°25'1 3.0
2017-Nov-11 05:00N 44°36' W 001°24'2 3.1
2017-Nov-11 04:30N 44°37' W 001°22'0 0.7
2017-Nov-11 04:01N 44°37' W 001°22'1 2.0
2017-Nov-11 03:30N 44°36' W 001°22'1 2.9
2017-Nov-11 03:00N 44°34' W 001°22'1 3.0
2017-Nov-11 02:30N 44°33' W 001°23'1 2.9
2017-Nov-11 02:00N 44°32' W 001°23'1 2.8
2017-Nov-11 01:30N 44°30' W 001°22'1 2.8
2017-Nov-11 01:00N 44°29' W 001°22'1 2.7
2017-Nov-11 00:30N 44°27' W 001°22'1 2.6
2017-Nov-11 00:00N 44°26' W 001°22'1 2.9
2017-Nov-10 23:30N 44°25' W 001°22'1 2.9
2017-Nov-10 23:00N 44°23' W 001°22'3 0.9
2017-Nov-10 19:42N 44°22' W 001°26'6 3.0
2017-Nov-10 17:34N 44°28' W 001°25'0 3.0
2017-Nov-10 17:30N 44°28' W 001°25'2 3.1
2017-Nov-10 17:00N 44°30' W 001°25'2 3.2
2017-Nov-10 16:30N 44°31' W 001°25'2 3.2
2017-Nov-10 16:00N 44°33' W 001°25'1 2.9
2017-Nov-10 15:30N 44°34' W 001°25'1 1.7
2017-Nov-10 15:00N 44°35' W 001°25'1 2.6
2017-Nov-10 14:30N 44°34' W 001°26'1 2.7
2017-Nov-10 14:00N 44°33' W 001°26'1 2.9
2017-Nov-10 13:30N 44°31' W 001°25'2 3.0
2017-Nov-10 13:00N 44°30' W 001°25'1 3.0
2017-Nov-10 12:30N 44°28' W 001°25'2 3.2
2017-Nov-10 11:59N 44°27' W 001°26'2 3.2
2017-Nov-10 11:30N 44°25' W 001°26'2 3.1
2017-Nov-10 10:59N 44°23' W 001°26'6 1.2
2017-Nov-10 06:09N 44°29' W 001°24'1 2.8
2017-Nov-10 05:50N 44°29' W 001°23'1 2.6
2017-Nov-10 05:30N 44°29' W 001°22'2 3.2
2017-Nov-10 05:00N 44°27' W 001°22'1 2.7
2017-Nov-10 04:30N 44°26' W 001°22'1 2.7
2017-Nov-10 04:00N 44°25' W 001°22'1 0.4
2017-Nov-10 01:23N 44°26' W 001°23'1 2.9
2017-Nov-10 00:59N 44°27' W 001°23'  

Dump ship's entire track history